sensor_id;sensor_type;location;lat;lon;timestamp;P1;durP1;ratioP1;P2;durP2;ratioP2
38859;SDS011;24609;48.316;16.174;2023-07-20T00:01:14;8.13;;;4.55;;
38859;SDS011;24609;48.316;16.174;2023-07-20T00:03:40;8.50;;;4.72;;
38859;SDS011;24609;48.316;16.174;2023-07-20T00:06:06;6.15;;;4.00;;
38859;SDS011;24609;48.316;16.174;2023-07-20T00:08:32;6.05;;;5.00;;
38859;SDS011;24609;48.316;16.174;2023-07-20T00:10:58;8.02;;;4.63;;
38859;SDS011;24609;48.316;16.174;2023-07-20T00:13:23;5.90;;;4.57;;
38859;SDS011;24609;48.316;16.174;2023-07-20T00:15:49;7.63;;;4.43;;
38859;SDS011;24609;48.316;16.174;2023-07-20T00:18:16;6.75;;;4.03;;
38859;SDS011;24609;48.316;16.174;2023-07-20T00:20:41;5.80;;;4.15;;
38859;SDS011;24609;48.316;16.174;2023-07-20T00:23:07;6.47;;;4.13;;
38859;SDS011;24609;48.316;16.174;2023-07-20T00:25:34;6.28;;;3.63;;
38859;SDS011;24609;48.316;16.174;2023-07-20T00:28:01;5.72;;;4.03;;
38859;SDS011;24609;48.316;16.174;2023-07-20T00:30:26;6.53;;;4.45;;
38859;SDS011;24609;48.316;16.174;2023-07-20T00:32:52;5.20;;;3.92;;
38859;SDS011;24609;48.316;16.174;2023-07-20T00:35:18;8.05;;;4.85;;
38859;SDS011;24609;48.316;16.174;2023-07-20T00:37:43;5.32;;;4.40;;
38859;SDS011;24609;48.316;16.174;2023-07-20T00:40:09;6.45;;;4.60;;
38859;SDS011;24609;48.316;16.174;2023-07-20T00:42:35;9.57;;;5.00;;
38859;SDS011;24609;48.316;16.174;2023-07-20T00:45:01;5.43;;;4.60;;
38859;SDS011;24609;48.316;16.174;2023-07-20T00:47:27;5.53;;;4.65;;
38859;SDS011;24609;48.316;16.174;2023-07-20T00:49:53;6.45;;;4.18;;
38859;SDS011;24609;48.316;16.174;2023-07-20T00:52:20;6.32;;;4.40;;
38859;SDS011;24609;48.316;16.174;2023-07-20T00:54:48;6.30;;;4.05;;
38859;SDS011;24609;48.316;16.174;2023-07-20T00:57:15;7.80;;;3.72;;
38859;SDS011;24609;48.316;16.174;2023-07-20T00:59:42;5.60;;;4.03;;
38859;SDS011;24609;48.316;16.174;2023-07-20T01:02:08;6.63;;;4.57;;
38859;SDS011;24609;48.316;16.174;2023-07-20T01:04:34;5.95;;;4.40;;
38859;SDS011;24609;48.316;16.174;2023-07-20T01:09:34;7.38;;;4.63;;
38859;SDS011;24609;48.316;16.174;2023-07-20T01:12:18;7.53;;;4.35;;
38859;SDS011;24609;48.316;16.174;2023-07-20T01:14:55;6.22;;;4.47;;
38859;SDS011;24609;48.316;16.174;2023-07-20T01:17:21;6.32;;;5.25;;
38859;SDS011;24609;48.316;16.174;2023-07-20T01:19:49;5.32;;;4.80;;
38859;SDS011;24609;48.316;16.174;2023-07-20T01:28:24;8.40;;;4.53;;
38859;SDS011;24609;48.316;16.174;2023-07-20T01:33:36;7.45;;;5.00;;
38859;SDS011;24609;48.316;16.174;2023-07-20T01:36:03;8.68;;;4.80;;
38859;SDS011;24609;48.316;16.174;2023-07-20T01:38:30;7.20;;;4.10;;
38859;SDS011;24609;48.316;16.174;2023-07-20T01:40:56;5.30;;;4.30;;
38859;SDS011;24609;48.316;16.174;2023-07-20T01:43:23;6.40;;;4.60;;
38859;SDS011;24609;48.316;16.174;2023-07-20T01:45:48;7.72;;;4.85;;
38859;SDS011;24609;48.316;16.174;2023-07-20T01:48:14;5.28;;;4.10;;
38859;SDS011;24609;48.316;16.174;2023-07-20T01:50:40;6.68;;;4.82;;
38859;SDS011;24609;48.316;16.174;2023-07-20T01:53:05;7.40;;;4.60;;
38859;SDS011;24609;48.316;16.174;2023-07-20T01:55:31;7.63;;;4.85;;
38859;SDS011;24609;48.316;16.174;2023-07-20T01:57:57;9.38;;;4.90;;
38859;SDS011;24609;48.316;16.174;2023-07-20T02:00:25;6.85;;;4.40;;
38859;SDS011;24609;48.316;16.174;2023-07-20T02:02:51;5.25;;;4.75;;
38859;SDS011;24609;48.316;16.174;2023-07-20T02:05:16;5.90;;;4.20;;
38859;SDS011;24609;48.316;16.174;2023-07-20T02:07:42;5.55;;;4.63;;
38859;SDS011;24609;48.316;16.174;2023-07-20T02:10:08;8.48;;;4.60;;
38859;SDS011;24609;48.316;16.174;2023-07-20T02:12:34;5.90;;;4.45;;
38859;SDS011;24609;48.316;16.174;2023-07-20T02:15:01;5.35;;;4.40;;
38859;SDS011;24609;48.316;16.174;2023-07-20T02:17:27;6.95;;;5.10;;
38859;SDS011;24609;48.316;16.174;2023-07-20T02:19:53;10.27;;;4.93;;
38859;SDS011;24609;48.316;16.174;2023-07-20T02:22:20;8.48;;;5.18;;
38859;SDS011;24609;48.316;16.174;2023-07-20T02:24:46;6.85;;;4.85;;
38859;SDS011;24609;48.316;16.174;2023-07-20T02:27:12;5.28;;;4.63;;
38859;SDS011;24609;48.316;16.174;2023-07-20T02:29:38;6.75;;;5.50;;
38859;SDS011;24609;48.316;16.174;2023-07-20T02:32:06;8.68;;;5.80;;
38859;SDS011;24609;48.316;16.174;2023-07-20T02:34:32;8.00;;;4.95;;
38859;SDS011;24609;48.316;16.174;2023-07-20T02:36:58;6.95;;;4.97;;
38859;SDS011;24609;48.316;16.174;2023-07-20T02:39:26;7.18;;;4.80;;
38859;SDS011;24609;48.316;16.174;2023-07-20T02:41:53;7.60;;;5.22;;
38859;SDS011;24609;48.316;16.174;2023-07-20T02:44:19;7.47;;;5.22;;
38859;SDS011;24609;48.316;16.174;2023-07-20T02:46:45;8.27;;;5.10;;
38859;SDS011;24609;48.316;16.174;2023-07-20T02:49:11;7.85;;;5.00;;
38859;SDS011;24609;48.316;16.174;2023-07-20T02:51:37;6.78;;;5.00;;
38859;SDS011;24609;48.316;16.174;2023-07-20T02:54:02;7.63;;;5.43;;
38859;SDS011;24609;48.316;16.174;2023-07-20T02:56:28;7.78;;;5.40;;
38859;SDS011;24609;48.316;16.174;2023-07-20T02:58:54;6.78;;;4.90;;
38859;SDS011;24609;48.316;16.174;2023-07-20T03:01:20;6.88;;;5.78;;
38859;SDS011;24609;48.316;16.174;2023-07-20T03:03:46;11.90;;;5.97;;
38859;SDS011;24609;48.316;16.174;2023-07-20T03:06:14;6.85;;;5.68;;
38859;SDS011;24609;48.316;16.174;2023-07-20T03:08:41;7.65;;;5.97;;
38859;SDS011;24609;48.316;16.174;2023-07-20T03:11:12;6.13;;;5.20;;
38859;SDS011;24609;48.316;16.174;2023-07-20T03:13:41;6.95;;;5.72;;
38859;SDS011;24609;48.316;16.174;2023-07-20T03:16:08;7.10;;;5.45;;
38859;SDS011;24609;48.316;16.174;2023-07-20T03:18:36;8.15;;;5.97;;
38859;SDS011;24609;48.316;16.174;2023-07-20T03:21:03;9.13;;;5.40;;
38859;SDS011;24609;48.316;16.174;2023-07-20T03:23:30;10.07;;;5.13;;
38859;SDS011;24609;48.316;16.174;2023-07-20T03:25:55;8.55;;;4.82;;
38859;SDS011;24609;48.316;16.174;2023-07-20T03:28:21;6.82;;;5.25;;
38859;SDS011;24609;48.316;16.174;2023-07-20T03:30:52;6.85;;;5.40;;
38859;SDS011;24609;48.316;16.174;2023-07-20T03:33:28;7.38;;;5.35;;
38859;SDS011;24609;48.316;16.174;2023-07-20T03:35:55;7.10;;;5.25;;
38859;SDS011;24609;48.316;16.174;2023-07-20T03:38:21;6.05;;;4.63;;
38859;SDS011;24609;48.316;16.174;2023-07-20T03:40:55;7.68;;;4.55;;
38859;SDS011;24609;48.316;16.174;2023-07-20T03:43:25;7.18;;;4.85;;
38859;SDS011;24609;48.316;16.174;2023-07-20T03:45:52;7.80;;;5.05;;
38859;SDS011;24609;48.316;16.174;2023-07-20T03:48:19;7.38;;;5.20;;
38859;SDS011;24609;48.316;16.174;2023-07-20T03:50:49;6.50;;;4.90;;
38859;SDS011;24609;48.316;16.174;2023-07-20T03:53:16;5.80;;;4.45;;
38859;SDS011;24609;48.316;16.174;2023-07-20T03:55:46;7.05;;;5.10;;
38859;SDS011;24609;48.316;16.174;2023-07-20T03:58:15;6.13;;;4.45;;
38859;SDS011;24609;48.316;16.174;2023-07-20T04:00:48;6.15;;;4.45;;
38859;SDS011;24609;48.316;16.174;2023-07-20T04:03:15;7.63;;;4.70;;
38859;SDS011;24609;48.316;16.174;2023-07-20T04:05:41;7.45;;;5.47;;
38859;SDS011;24609;48.316;16.174;2023-07-20T04:08:08;5.45;;;4.63;;
38859;SDS011;24609;48.316;16.174;2023-07-20T04:10:34;7.07;;;5.30;;
38859;SDS011;24609;48.316;16.174;2023-07-20T04:13:00;7.38;;;4.93;;
38859;SDS011;24609;48.316;16.174;2023-07-20T04:15:26;7.05;;;4.70;;
38859;SDS011;24609;48.316;16.174;2023-07-20T04:17:52;5.80;;;4.40;;
38859;SDS011;24609;48.316;16.174;2023-07-20T04:20:17;6.88;;;4.90;;
38859;SDS011;24609;48.316;16.174;2023-07-20T04:22:43;8.60;;;4.70;;
38859;SDS011;24609;48.316;16.174;2023-07-20T04:25:09;8.25;;;5.10;;
38859;SDS011;24609;48.316;16.174;2023-07-20T04:27:35;9.18;;;5.38;;
38859;SDS011;24609;48.316;16.174;2023-07-20T04:30:01;9.57;;;5.38;;
38859;SDS011;24609;48.316;16.174;2023-07-20T04:32:28;6.53;;;5.18;;
38859;SDS011;24609;48.316;16.174;2023-07-20T04:34:54;11.27;;;5.55;;
38859;SDS011;24609;48.316;16.174;2023-07-20T04:37:20;8.77;;;5.40;;
38859;SDS011;24609;48.316;16.174;2023-07-20T04:39:45;7.40;;;4.90;;
38859;SDS011;24609;48.316;16.174;2023-07-20T04:42:12;6.10;;;4.82;;
38859;SDS011;24609;48.316;16.174;2023-07-20T04:44:37;5.50;;;4.63;;
38859;SDS011;24609;48.316;16.174;2023-07-20T04:47:03;6.38;;;5.03;;
38859;SDS011;24609;48.316;16.174;2023-07-20T04:49:29;7.22;;;4.43;;
38859;SDS011;24609;48.316;16.174;2023-07-20T04:51:54;8.43;;;4.90;;
38859;SDS011;24609;48.316;16.174;2023-07-20T04:54:20;7.75;;;6.00;;
38859;SDS011;24609;48.316;16.174;2023-07-20T04:56:46;7.13;;;4.85;;
38859;SDS011;24609;48.316;16.174;2023-07-20T04:59:11;7.45;;;4.82;;
38859;SDS011;24609;48.316;16.174;2023-07-20T05:01:37;7.82;;;4.85;;
38859;SDS011;24609;48.316;16.174;2023-07-20T05:04:03;7.60;;;5.20;;
38859;SDS011;24609;48.316;16.174;2023-07-20T05:06:29;7.13;;;4.88;;
38859;SDS011;24609;48.316;16.174;2023-07-20T05:08:54;12.07;;;5.75;;
38859;SDS011;24609;48.316;16.174;2023-07-20T05:11:20;9.95;;;5.30;;
38859;SDS011;24609;48.316;16.174;2023-07-20T05:13:46;7.50;;;5.18;;
38859;SDS011;24609;48.316;16.174;2023-07-20T05:16:11;7.07;;;4.63;;
38859;SDS011;24609;48.316;16.174;2023-07-20T05:18:37;7.25;;;5.57;;
38859;SDS011;24609;48.316;16.174;2023-07-20T05:21:03;6.55;;;5.28;;
38859;SDS011;24609;48.316;16.174;2023-07-20T05:23:28;7.57;;;4.85;;
38859;SDS011;24609;48.316;16.174;2023-07-20T05:25:54;6.18;;;4.82;;
38859;SDS011;24609;48.316;16.174;2023-07-20T05:28:24;7.55;;;5.03;;
38859;SDS011;24609;48.316;16.174;2023-07-20T05:30:50;4.78;;;4.10;;
38859;SDS011;24609;48.316;16.174;2023-07-20T05:33:19;7.72;;;5.55;;
38859;SDS011;24609;48.316;16.174;2023-07-20T05:35:46;6.75;;;4.78;;
38859;SDS011;24609;48.316;16.174;2023-07-20T05:38:12;6.95;;;5.57;;
38859;SDS011;24609;48.316;16.174;2023-07-20T05:40:38;9.40;;;5.32;;
38859;SDS011;24609;48.316;16.174;2023-07-20T05:43:05;9.18;;;5.10;;
38859;SDS011;24609;48.316;16.174;2023-07-20T05:45:30;8.85;;;4.97;;
38859;SDS011;24609;48.316;16.174;2023-07-20T05:47:56;5.75;;;4.35;;
38859;SDS011;24609;48.316;16.174;2023-07-20T05:50:22;6.30;;;4.82;;
38859;SDS011;24609;48.316;16.174;2023-07-20T05:52:47;8.57;;;4.20;;
38859;SDS011;24609;48.316;16.174;2023-07-20T05:55:13;4.30;;;3.88;;
38859;SDS011;24609;48.316;16.174;2023-07-20T05:57:39;7.55;;;4.85;;
38859;SDS011;24609;48.316;16.174;2023-07-20T06:00:07;8.55;;;4.07;;
38859;SDS011;24609;48.316;16.174;2023-07-20T06:02:34;7.63;;;4.25;;
38859;SDS011;24609;48.316;16.174;2023-07-20T06:04:59;5.90;;;4.35;;
38859;SDS011;24609;48.316;16.174;2023-07-20T06:07:25;6.30;;;4.50;;
38859;SDS011;24609;48.316;16.174;2023-07-20T06:09:51;6.90;;;4.40;;
38859;SDS011;24609;48.316;16.174;2023-07-20T06:12:17;6.25;;;4.20;;
38859;SDS011;24609;48.316;16.174;2023-07-20T06:14:42;6.80;;;4.35;;
38859;SDS011;24609;48.316;16.174;2023-07-20T06:17:08;5.32;;;3.67;;
38859;SDS011;24609;48.316;16.174;2023-07-20T06:19:34;6.38;;;4.00;;
38859;SDS011;24609;48.316;16.174;2023-07-20T06:22:00;5.47;;;3.92;;
38859;SDS011;24609;48.316;16.174;2023-07-20T06:24:26;4.75;;;3.88;;
38859;SDS011;24609;48.316;16.174;2023-07-20T06:26:51;8.07;;;4.10;;
38859;SDS011;24609;48.316;16.174;2023-07-20T06:29:17;7.15;;;4.20;;
38859;SDS011;24609;48.316;16.174;2023-07-20T06:31:43;5.57;;;4.05;;
38859;SDS011;24609;48.316;16.174;2023-07-20T06:34:09;4.82;;;3.60;;
38859;SDS011;24609;48.316;16.174;2023-07-20T06:36:35;4.93;;;3.38;;
38859;SDS011;24609;48.316;16.174;2023-07-20T06:39:01;5.32;;;3.50;;
38859;SDS011;24609;48.316;16.174;2023-07-20T06:41:27;5.13;;;2.72;;
38859;SDS011;24609;48.316;16.174;2023-07-20T06:43:53;4.53;;;2.83;;
38859;SDS011;24609;48.316;16.174;2023-07-20T06:46:23;7.93;;;3.00;;
38859;SDS011;24609;48.316;16.174;2023-07-20T06:48:50;4.57;;;3.47;;
38859;SDS011;24609;48.316;16.174;2023-07-20T06:51:15;5.18;;;3.42;;
38859;SDS011;24609;48.316;16.174;2023-07-20T06:53:41;4.97;;;3.58;;
38859;SDS011;24609;48.316;16.174;2023-07-20T06:56:07;8.60;;;4.47;;
38859;SDS011;24609;48.316;16.174;2023-07-20T06:58:32;4.15;;;3.75;;
38859;SDS011;24609;48.316;16.174;2023-07-20T07:00:58;4.53;;;3.50;;
38859;SDS011;24609;48.316;16.174;2023-07-20T07:03:24;6.80;;;3.55;;
38859;SDS011;24609;48.316;16.174;2023-07-20T07:05:50;4.88;;;3.78;;
38859;SDS011;24609;48.316;16.174;2023-07-20T07:08:19;6.85;;;3.92;;
38859;SDS011;24609;48.316;16.174;2023-07-20T07:10:45;5.13;;;3.40;;
38859;SDS011;24609;48.316;16.174;2023-07-20T07:13:11;5.70;;;3.63;;
38859;SDS011;24609;48.316;16.174;2023-07-20T07:15:36;6.28;;;3.38;;
38859;SDS011;24609;48.316;16.174;2023-07-20T07:18:02;4.05;;;3.00;;
38859;SDS011;24609;48.316;16.174;2023-07-20T07:20:28;4.53;;;3.10;;
38859;SDS011;24609;48.316;16.174;2023-07-20T07:22:54;6.10;;;3.60;;
38859;SDS011;24609;48.316;16.174;2023-07-20T07:25:22;9.88;;;3.22;;
38859;SDS011;24609;48.316;16.174;2023-07-20T07:27:47;4.32;;;3.58;;
38859;SDS011;24609;48.316;16.174;2023-07-20T07:30:13;5.00;;;2.97;;
38859;SDS011;24609;48.316;16.174;2023-07-20T07:32:39;4.18;;;3.00;;
38859;SDS011;24609;48.316;16.174;2023-07-20T07:35:06;3.92;;;3.05;;
38859;SDS011;24609;48.316;16.174;2023-07-20T07:37:31;9.30;;;4.35;;
38859;SDS011;24609;48.316;16.174;2023-07-20T07:39:57;4.65;;;2.63;;
38859;SDS011;24609;48.316;16.174;2023-07-20T07:42:23;5.22;;;3.10;;
38859;SDS011;24609;48.316;16.174;2023-07-20T07:44:48;4.22;;;3.05;;
38859;SDS011;24609;48.316;16.174;2023-07-20T07:47:14;5.97;;;2.90;;
38859;SDS011;24609;48.316;16.174;2023-07-20T07:49:40;5.60;;;3.72;;
38859;SDS011;24609;48.316;16.174;2023-07-20T07:52:06;6.05;;;3.25;;
38859;SDS011;24609;48.316;16.174;2023-07-20T07:54:31;3.42;;;2.53;;
38859;SDS011;24609;48.316;16.174;2023-07-20T07:56:57;6.47;;;2.92;;
38859;SDS011;24609;48.316;16.174;2023-07-20T07:59:23;5.25;;;2.95;;
38859;SDS011;24609;48.316;16.174;2023-07-20T08:01:48;4.95;;;2.75;;
38859;SDS011;24609;48.316;16.174;2023-07-20T08:04:14;3.83;;;2.92;;
38859;SDS011;24609;48.316;16.174;2023-07-20T08:06:40;2.83;;;2.60;;
38859;SDS011;24609;48.316;16.174;2023-07-20T08:09:05;5.88;;;2.97;;
38859;SDS011;24609;48.316;16.174;2023-07-20T08:11:31;5.28;;;3.40;;
38859;SDS011;24609;48.316;16.174;2023-07-20T08:13:59;3.65;;;2.75;;
38859;SDS011;24609;48.316;16.174;2023-07-20T08:16:25;3.63;;;2.92;;
38859;SDS011;24609;48.316;16.174;2023-07-20T08:18:51;3.50;;;2.67;;
38859;SDS011;24609;48.316;16.174;2023-07-20T08:21:17;5.22;;;3.00;;
38859;SDS011;24609;48.316;16.174;2023-07-20T08:23:43;4.72;;;2.90;;
38859;SDS011;24609;48.316;16.174;2023-07-20T08:26:09;3.30;;;2.70;;
38859;SDS011;24609;48.316;16.174;2023-07-20T08:28:35;6.13;;;3.17;;
38859;SDS011;24609;48.316;16.174;2023-07-20T08:31:00;5.30;;;2.63;;
38859;SDS011;24609;48.316;16.174;2023-07-20T08:33:27;8.20;;;3.25;;
38859;SDS011;24609;48.316;16.174;2023-07-20T08:35:55;6.63;;;3.35;;
38859;SDS011;24609;48.316;16.174;2023-07-20T08:38:21;5.90;;;2.85;;
38859;SDS011;24609;48.316;16.174;2023-07-20T08:40:47;4.75;;;3.03;;
38859;SDS011;24609;48.316;16.174;2023-07-20T08:43:13;6.68;;;3.10;;
38859;SDS011;24609;48.316;16.174;2023-07-20T08:45:41;4.00;;;2.95;;
38859;SDS011;24609;48.316;16.174;2023-07-20T08:48:10;6.82;;;3.10;;
38859;SDS011;24609;48.316;16.174;2023-07-20T08:50:37;4.70;;;3.08;;
38859;SDS011;24609;48.316;16.174;2023-07-20T08:53:03;5.28;;;2.92;;
38859;SDS011;24609;48.316;16.174;2023-07-20T08:55:29;3.80;;;2.95;;
38859;SDS011;24609;48.316;16.174;2023-07-20T08:57:57;3.75;;;3.05;;
38859;SDS011;24609;48.316;16.174;2023-07-20T09:00:24;3.88;;;2.80;;
38859;SDS011;24609;48.316;16.174;2023-07-20T09:02:52;4.45;;;2.67;;
38859;SDS011;24609;48.316;16.174;2023-07-20T09:05:19;4.75;;;3.10;;
38859;SDS011;24609;48.316;16.174;2023-07-20T09:07:47;3.40;;;2.72;;
38859;SDS011;24609;48.316;16.174;2023-07-20T09:10:12;5.20;;;2.92;;
38859;SDS011;24609;48.316;16.174;2023-07-20T09:12:39;5.03;;;3.10;;
38859;SDS011;24609;48.316;16.174;2023-07-20T09:15:07;3.40;;;2.93;;
38859;SDS011;24609;48.316;16.174;2023-07-20T09:17:34;5.35;;;2.60;;
38859;SDS011;24609;48.316;16.174;2023-07-20T09:20:06;4.43;;;2.90;;
38859;SDS011;24609;48.316;16.174;2023-07-20T09:22:36;4.18;;;2.40;;
38859;SDS011;24609;48.316;16.174;2023-07-20T09:25:06;4.82;;;2.75;;
38859;SDS011;24609;48.316;16.174;2023-07-20T09:27:43;4.70;;;3.17;;
38859;SDS011;24609;48.316;16.174;2023-07-20T09:30:14;3.70;;;3.13;;
38859;SDS011;24609;48.316;16.174;2023-07-20T09:35:16;4.00;;;2.55;;
38859;SDS011;24609;48.316;16.174;2023-07-20T09:38:00;5.15;;;3.05;;
38859;SDS011;24609;48.316;16.174;2023-07-20T09:40:27;4.40;;;2.85;;
38859;SDS011;24609;48.316;16.174;2023-07-20T09:42:53;6.65;;;3.10;;
38859;SDS011;24609;48.316;16.174;2023-07-20T09:45:35;8.63;;;4.10;;
38859;SDS011;24609;48.316;16.174;2023-07-20T09:48:06;10.45;;;3.40;;
38859;SDS011;24609;48.316;16.174;2023-07-20T09:50:33;9.95;;;3.80;;
38859;SDS011;24609;48.316;16.174;2023-07-20T09:53:05;6.47;;;3.42;;
38859;SDS011;24609;48.316;16.174;2023-07-20T09:55:32;13.23;;;3.60;;
38859;SDS011;24609;48.316;16.174;2023-07-20T09:58:00;6.45;;;3.80;;
38859;SDS011;24609;48.316;16.174;2023-07-20T10:00:25;7.70;;;3.42;;
38859;SDS011;24609;48.316;16.174;2023-07-20T10:02:51;7.72;;;3.25;;
38859;SDS011;24609;48.316;16.174;2023-07-20T10:05:18;6.55;;;3.28;;
38859;SDS011;24609;48.316;16.174;2023-07-20T10:07:49;5.10;;;3.22;;
38859;SDS011;24609;48.316;16.174;2023-07-20T10:10:16;7.18;;;2.75;;
38859;SDS011;24609;48.316;16.174;2023-07-20T10:12:44;6.25;;;3.30;;
38859;SDS011;24609;48.316;16.174;2023-07-20T10:17:47;4.18;;;3.03;;
38859;SDS011;24609;48.316;16.174;2023-07-20T10:20:26;6.60;;;3.35;;
38859;SDS011;24609;48.316;16.174;2023-07-20T10:22:53;7.80;;;3.17;;
38859;SDS011;24609;48.316;16.174;2023-07-20T10:25:22;7.47;;;3.25;;
38859;SDS011;24609;48.316;16.174;2023-07-20T10:27:48;4.20;;;3.13;;
38859;SDS011;24609;48.316;16.174;2023-07-20T10:30:14;3.10;;;2.45;;
38859;SDS011;24609;48.316;16.174;2023-07-20T10:32:41;3.33;;;2.55;;
38859;SDS011;24609;48.316;16.174;2023-07-20T10:35:17;9.75;;;2.97;;
38859;SDS011;24609;48.316;16.174;2023-07-20T10:37:50;6.43;;;2.90;;
38859;SDS011;24609;48.316;16.174;2023-07-20T10:40:31;5.45;;;2.85;;
38859;SDS011;24609;48.316;16.174;2023-07-20T10:43:04;6.38;;;2.38;;
38859;SDS011;24609;48.316;16.174;2023-07-20T10:48:04;7.07;;;2.75;;
38859;SDS011;24609;48.316;16.174;2023-07-20T10:50:32;4.65;;;2.38;;
38859;SDS011;24609;48.316;16.174;2023-07-20T10:53:05;5.72;;;2.83;;
38859;SDS011;24609;48.316;16.174;2023-07-20T10:55:36;2.65;;;2.38;;
38859;SDS011;24609;48.316;16.174;2023-07-20T10:58:14;4.72;;;2.50;;
38859;SDS011;24609;48.316;16.174;2023-07-20T11:00:56;4.82;;;2.40;;
38859;SDS011;24609;48.316;16.174;2023-07-20T11:03:30;4.95;;;2.28;;
38859;SDS011;24609;48.316;16.174;2023-07-20T11:05:58;4.10;;;2.67;;
38859;SDS011;24609;48.316;16.174;2023-07-20T11:08:42;8.90;;;2.88;;
38859;SDS011;24609;48.316;16.174;2023-07-20T11:14:25;5.63;;;2.38;;
38859;SDS011;24609;48.316;16.174;2023-07-20T11:16:51;3.65;;;2.15;;
38859;SDS011;24609;48.316;16.174;2023-07-20T11:19:24;5.32;;;2.13;;
38859;SDS011;24609;48.316;16.174;2023-07-20T11:24:20;3.85;;;2.53;;
38859;SDS011;24609;48.316;16.174;2023-07-20T11:26:47;4.07;;;2.72;;
38859;SDS011;24609;48.316;16.174;2023-07-20T11:29:20;5.47;;;2.30;;
38859;SDS011;24609;48.316;16.174;2023-07-20T11:31:47;3.67;;;2.30;;
38859;SDS011;24609;48.316;16.174;2023-07-20T11:34:15;6.53;;;2.22;;
38859;SDS011;24609;48.316;16.174;2023-07-20T11:36:43;8.25;;;2.35;;
38859;SDS011;24609;48.316;16.174;2023-07-20T11:39:11;11.32;;;2.63;;
38859;SDS011;24609;48.316;16.174;2023-07-20T11:41:37;7.22;;;2.20;;
38859;SDS011;24609;48.316;16.174;2023-07-20T11:44:04;4.90;;;2.28;;
38859;SDS011;24609;48.316;16.174;2023-07-20T11:46:32;5.20;;;2.28;;
38859;SDS011;24609;48.316;16.174;2023-07-20T11:48:58;6.25;;;2.53;;
38859;SDS011;24609;48.316;16.174;2023-07-20T11:51:25;4.05;;;2.13;;
38859;SDS011;24609;48.316;16.174;2023-07-20T11:56:19;7.18;;;2.40;;
38859;SDS011;24609;48.316;16.174;2023-07-20T11:58:45;12.38;;;2.80;;
38859;SDS011;24609;48.316;16.174;2023-07-20T12:01:12;7.10;;;2.25;;
38859;SDS011;24609;48.316;16.174;2023-07-20T12:03:38;5.68;;;2.35;;
38859;SDS011;24609;48.316;16.174;2023-07-20T12:06:11;6.53;;;2.20;;
38859;SDS011;24609;48.316;16.174;2023-07-20T12:08:39;2.85;;;1.90;;
38859;SDS011;24609;48.316;16.174;2023-07-20T12:11:06;3.50;;;1.90;;
38859;SDS011;24609;48.316;16.174;2023-07-20T12:13:40;3.50;;;2.00;;
38859;SDS011;24609;48.316;16.174;2023-07-20T12:16:11;16.35;;;2.47;;
38859;SDS011;24609;48.316;16.174;2023-07-20T12:18:42;13.80;;;2.97;;
38859;SDS011;24609;48.316;16.174;2023-07-20T12:21:09;4.55;;;2.00;;
38859;SDS011;24609;48.316;16.174;2023-07-20T12:23:38;10.27;;;2.20;;
38859;SDS011;24609;48.316;16.174;2023-07-20T12:26:09;8.02;;;2.20;;
38859;SDS011;24609;48.316;16.174;2023-07-20T12:28:41;5.80;;;2.13;;
38859;SDS011;24609;48.316;16.174;2023-07-20T12:31:07;4.28;;;2.15;;
38859;SDS011;24609;48.316;16.174;2023-07-20T12:33:34;5.22;;;1.88;;
38859;SDS011;24609;48.316;16.174;2023-07-20T12:36:00;6.90;;;2.10;;
38859;SDS011;24609;48.316;16.174;2023-07-20T12:38:26;5.15;;;2.05;;
38859;SDS011;24609;48.316;16.174;2023-07-20T12:40:53;6.18;;;1.77;;
38859;SDS011;24609;48.316;16.174;2023-07-20T12:43:22;6.13;;;1.90;;
38859;SDS011;24609;48.316;16.174;2023-07-20T12:45:48;4.40;;;1.88;;
38859;SDS011;24609;48.316;16.174;2023-07-20T12:48:13;7.68;;;2.53;;
38859;SDS011;24609;48.316;16.174;2023-07-20T12:50:39;2.47;;;1.75;;
38859;SDS011;24609;48.316;16.174;2023-07-20T12:53:05;7.55;;;1.73;;
38859;SDS011;24609;48.316;16.174;2023-07-20T12:55:31;4.60;;;1.90;;
38859;SDS011;24609;48.316;16.174;2023-07-20T12:57:57;5.25;;;2.08;;
38859;SDS011;24609;48.316;16.174;2023-07-20T13:00:22;6.75;;;2.15;;
38859;SDS011;24609;48.316;16.174;2023-07-20T13:02:49;8.18;;;2.10;;
38859;SDS011;24609;48.316;16.174;2023-07-20T13:05:15;6.95;;;1.92;;
38859;SDS011;24609;48.316;16.174;2023-07-20T13:07:41;10.63;;;2.22;;
38859;SDS011;24609;48.316;16.174;2023-07-20T13:10:07;8.95;;;2.03;;
38859;SDS011;24609;48.316;16.174;2023-07-20T13:12:34;5.53;;;2.08;;
38859;SDS011;24609;48.316;16.174;2023-07-20T13:15:01;4.00;;;1.52;;
38859;SDS011;24609;48.316;16.174;2023-07-20T13:17:31;6.75;;;1.92;;
38859;SDS011;24609;48.316;16.174;2023-07-20T13:20:00;3.33;;;1.60;;
38859;SDS011;24609;48.316;16.174;2023-07-20T13:22:25;6.13;;;1.80;;
38859;SDS011;24609;48.316;16.174;2023-07-20T13:24:52;2.88;;;1.67;;
38859;SDS011;24609;48.316;16.174;2023-07-20T13:27:18;2.60;;;1.88;;
38859;SDS011;24609;48.316;16.174;2023-07-20T13:29:44;2.45;;;1.88;;
38859;SDS011;24609;48.316;16.174;2023-07-20T13:32:12;3.38;;;1.88;;
38859;SDS011;24609;48.316;16.174;2023-07-20T13:34:43;4.75;;;2.22;;
38859;SDS011;24609;48.316;16.174;2023-07-20T13:37:09;2.10;;;1.85;;
38859;SDS011;24609;48.316;16.174;2023-07-20T13:39:36;3.92;;;1.98;;
38859;SDS011;24609;48.316;16.174;2023-07-20T13:42:01;5.32;;;1.98;;
38859;SDS011;24609;48.316;16.174;2023-07-20T13:44:30;3.85;;;2.08;;
38859;SDS011;24609;48.316;16.174;2023-07-20T13:46:56;4.53;;;2.38;;
38859;SDS011;24609;48.316;16.174;2023-07-20T13:49:22;4.30;;;2.35;;
38859;SDS011;24609;48.316;16.174;2023-07-20T13:51:48;5.07;;;2.25;;
38859;SDS011;24609;48.316;16.174;2023-07-20T13:54:14;2.90;;;2.00;;
38859;SDS011;24609;48.316;16.174;2023-07-20T13:56:39;3.70;;;1.95;;
38859;SDS011;24609;48.316;16.174;2023-07-20T13:59:05;4.93;;;2.03;;
38859;SDS011;24609;48.316;16.174;2023-07-20T14:01:31;2.38;;;2.08;;
38859;SDS011;24609;48.316;16.174;2023-07-20T14:03:59;2.75;;;1.80;;
38859;SDS011;24609;48.316;16.174;2023-07-20T14:06:25;2.95;;;1.92;;
38859;SDS011;24609;48.316;16.174;2023-07-20T14:08:54;3.40;;;1.90;;
38859;SDS011;24609;48.316;16.174;2023-07-20T14:11:20;4.07;;;2.40;;
38859;SDS011;24609;48.316;16.174;2023-07-20T14:13:45;3.85;;;2.55;;
38859;SDS011;24609;48.316;16.174;2023-07-20T14:16:11;5.20;;;1.98;;
38859;SDS011;24609;48.316;16.174;2023-07-20T14:18:37;3.22;;;2.00;;
38859;SDS011;24609;48.316;16.174;2023-07-20T14:21:02;3.80;;;1.80;;
38859;SDS011;24609;48.316;16.174;2023-07-20T14:23:30;2.63;;;1.77;;
38859;SDS011;24609;48.316;16.174;2023-07-20T14:25:56;3.88;;;2.00;;
38859;SDS011;24609;48.316;16.174;2023-07-20T14:28:21;8.32;;;2.00;;
38859;SDS011;24609;48.316;16.174;2023-07-20T14:30:47;4.60;;;1.90;;
38859;SDS011;24609;48.316;16.174;2023-07-20T14:33:12;5.38;;;2.08;;
38859;SDS011;24609;48.316;16.174;2023-07-20T14:35:38;2.40;;;1.70;;
38859;SDS011;24609;48.316;16.174;2023-07-20T14:38:04;9.27;;;2.10;;
38859;SDS011;24609;48.316;16.174;2023-07-20T14:40:30;3.25;;;1.67;;
38859;SDS011;24609;48.316;16.174;2023-07-20T14:42:55;6.82;;;1.90;;
38859;SDS011;24609;48.316;16.174;2023-07-20T14:45:21;8.57;;;2.17;;
38859;SDS011;24609;48.316;16.174;2023-07-20T14:47:47;3.85;;;1.52;;
38859;SDS011;24609;48.316;16.174;2023-07-20T14:50:18;4.80;;;1.98;;
38859;SDS011;24609;48.316;16.174;2023-07-20T14:52:47;2.28;;;1.63;;
38859;SDS011;24609;48.316;16.174;2023-07-20T14:55:12;3.00;;;1.95;;
38859;SDS011;24609;48.316;16.174;2023-07-20T14:57:38;3.00;;;1.65;;
38859;SDS011;24609;48.316;16.174;2023-07-20T15:00:04;6.13;;;1.77;;